Skip to main content.
Our real time weather data display below is updated continuously via our 24/7 live data feed.
 TIME   TEMPERATURE   WINDSPEED   DIRECTION   HUMIDITY   BAROMETER   RAINFALL 
8:45 13.7°C (56.7°F) 25.9 kmh (16.1 mph) NE 74% 1013.0hPa (29.91 inHg) 2.0mm (0.08 in.)
7:41 13.5°C (56.3 °F) 20.4 kmh (12.7 mph) NE 74% 1012.0hPa (29.88 inHg) 2.0mm (0.08 in.)
6:41 13.4°C (56.1 °F) 18.5 kmh (11.5 mph) NNE 74% 1012.0hPa (29.88 inHg) 2.0mm (0.08 in.)
5:41 13.4°C (56.1 °F) 24.1 kmh (15.0 mph) N 75% 1011.0hPa (29.85 inHg) 2.0mm (0.08 in.)
4:41 13.4°C (56.1 °F) 20.4 kmh (12.7 mph) N 75% 1011.0hPa (29.85 inHg) 2.0mm (0.08 in.)
3:41 13.4°C (56.1 °F) 24.1 kmh (15.0 mph) N 76% 1011.0hPa (29.85 inHg) 2.0mm (0.08 in.)
2:41 13.5°C (56.3 °F) 35.2 kmh (21.9 mph) N 76% 1011.0hPa (29.85 inHg) 2.0mm (0.08 in.)
1:41 13.6°C (56.5 °F) 35.2 kmh (21.9 mph) NNE 77% 1010.0hPa (29.83 inHg) 2.0mm (0.08 in.)
12:41 13.5°C (56.3 °F) 35.2 kmh (21.9 mph) NNE 78% 1009.0hPa (29.80 inHg) 2.0mm (0.08 in.)
11:41 13.6°C (56.5 °F) 20.4 kmh (12.7 mph) NNE 79% 1009.0hPa (29.80 inHg) 2.0mm (0.08 in.)
10:41 13.6°C (56.5 °F) 25.9 kmh (16.1 mph) NNE 79% 1008.0hPa (29.77 inHg) 2.0mm (0.08 in.)
9:41 13.6°C (56.5 °F) 22.2 kmh (13.8 mph) NW 79% 1008.0hPa (29.77 inHg) 2.0mm (0.08 in.)
8:41 13.7°C (56.7 °F) 18.5 kmh (11.5 mph) N 80% 1008.0hPa (29.77 inHg) 2.0mm (0.08 in.)
7:41 13.9°C (57.0 °F) 14.8 kmh (9.2 mph) NNW 80% 1007.0hPa (29.74 inHg) 2.0mm (0.08 in.)
6:41 13.9°C (57.0 °F) 24.1 kmh (15.0 mph) NW 79% 1007.0hPa (29.74 inHg) 2.0mm (0.08 in.)
5:41 13.9°C (57.0 °F) 20.4 kmh (12.7 mph) NNW 75% 1007.0hPa (29.74 inHg) 2.0mm (0.08 in.)
4:41 14.4°C (57.9 °F) 24.1 kmh (15.0 mph) NW 69% 1006.0hPa (29.71 inHg) 1.0mm (0.04 in.)
3:38 14.5°C (58.1 °F) 18.5 kmh (11.5 mph) NNW 68% 1007.0hPa (29.74 inHg) 0.0mm (0.00 in.)
2:38 14.3°C (57.7 °F) 18.5 kmh (11.5 mph) N 68% 1007.0hPa (29.74 inHg) 0.0mm (0.00 in.)
1:38 14.2°C (57.6 °F) 18.5 kmh (11.5 mph) NNW 68% 1008.0hPa (29.77 inHg) 0.0mm (0.00 in.)
12:36 15.0°C (59.0 °F) 16.7 kmh (10.4 mph) N 68% 1009.0hPa (29.80 inHg) 0.0mm (0.00 in.)
11:36 15.2°C (59.4 °F) 16.7 kmh (10.4 mph) NNW 69% 1010.0hPa (29.83 inHg) 0.0mm (0.00 in.)
10:36 14.8°C (58.6 °F) 22.2 kmh (13.8 mph) NNW 68% 1011.0hPa (29.85 inHg) 0.0mm (0.00 in.)
9:17 14.2°C (57.6 °F) 16.7 kmh (10.4 mph) N 66% 1011.0hPa (29.85 inHg) 0.0mm (0.00 in.)